Thursday, September 18, 2014, 1:39 AM EDT

KSHD, Staunton / Shenandoah

Location: Weyers Cave, VA, United States Lat: 38.267
Local Time: 1:39 AM EDT ( 5:39 GMT) Lon: -78.9
Time Zone: US/Eastern Elev: 1200 ft

Show me the last for .
Show Decoded

2014-09-18 01:15 METAR KSHD 180515Z AUTO 15003KT 10SM BKN060 13/11 A3000 RMK AO2 T01270106 =
2014-09-18 00:55 METAR KSHD 180455Z AUTO 00000KT 10SM OVC060 13/10 A3001 RMK AO2 T01250102 =
2014-09-18 00:35 METAR KSHD 180435Z AUTO 00000KT 10SM BKN060 13/11 A3001 RMK AO2 T01260105 =
2014-09-18 00:15 METAR KSHD 180415Z AUTO 00000KT 10SM BKN060 12/10 A3001 RMK AO2 T01240104 =
2014-09-17 23:55 METAR KSHD 180355Z AUTO 00000KT 10SM CLR 12/10 A3001 RMK AO2 T01240100 =
2014-09-17 23:35 METAR KSHD 180335Z AUTO 00000KT 10SM SCT075 12/10 A3001 RMK AO2 T01230104 =
2014-09-17 23:15 METAR KSHD 180315Z AUTO 00000KT 10SM BKN075 13/10 A3000 RMK AO2 T01250101 =
2014-09-17 22:55 METAR KSHD 180255Z AUTO 00000KT 10SM BKN075 14/11 A3000 RMK AO2 T01410110 =
2014-09-17 22:35 METAR KSHD 180235Z AUTO 00000KT 10SM BKN075 15/11 A3001 RMK AO2 T01470111 =
2014-09-17 22:15 METAR KSHD 180215Z AUTO 00000KT 10SM SCT075 14/11 A3002 RMK AO2 T01420111 =
2014-09-17 21:55 METAR KSHD 180155Z AUTO 00000KT 10SM CLR 15/11 A3002 RMK AO2 T01470111 =
2014-09-17 21:35 METAR KSHD 180135Z AUTO 00000KT 10SM CLR 13/11 A3002 RMK AO2 T01340105 =
2014-09-17 21:15 METAR KSHD 180115Z AUTO 00000KT 10SM CLR 15/11 A3001 RMK AO2 T01470108 =
2014-09-17 20:55 METAR KSHD 180055Z AUTO 00000KT 10SM CLR 15/11 A3000 RMK AO2 T01460109 =
2014-09-17 20:35 METAR KSHD 180035Z AUTO 00000KT 10SM CLR 17/11 A2999 RMK AO2 T01660111 =
2014-09-17 20:15 METAR KSHD 180015Z AUTO 00000KT 10SM CLR 18/11 A2999 RMK AO2 T01770112 =
2014-09-17 19:55 METAR KSHD 172355Z AUTO 16003KT 10SM CLR 18/11 A2998 RMK AO2 T01820111 10235
                 20181 =
2014-09-17 19:35 METAR KSHD 172335Z AUTO 16003KT 10SM CLR 19/11 A2998 RMK AO2 T01900110 =
2014-09-17 19:15 METAR KSHD 172315Z AUTO 15004KT 10SM CLR 20/11 A2998 RMK AO2 T01970108 =
2014-09-17 18:55 METAR KSHD 172255Z AUTO 16004KT 10SM CLR 21/11 A2998 RMK AO2 T02050106 =
2014-09-17 18:35 METAR KSHD 172235Z AUTO 16003KT 10SM SCT070 21/10 A2998 RMK AO2 T02120099 =
2014-09-17 18:15 METAR KSHD 172215Z AUTO 16006KT 10SM SCT070 22/10 A2999 RMK AO2 T02200101 =
2014-09-17 17:55 METAR KSHD 172155Z AUTO 17004KT 10SM CLR 22/10 A2999 RMK AO2 T02170097 =
2014-09-17 17:15 METAR KSHD 172115Z AUTO 19005KT 10SM SCT050 SCT065 22/09 A3000 RMK AO2 T02240091
                 =
2014-09-17 16:55 METAR KSHD 172055Z AUTO 20005KT 10SM SCT050 BKN065 23/09 A3000 RMK AO2 T02260090
                 =
2014-09-17 16:35 METAR KSHD 172035Z AUTO 20006KT 10SM OVC065 23/09 A3000 RMK AO2 T02260090 =
2014-09-17 16:15 METAR KSHD 172015Z AUTO 20008KT 10SM SCT050 OVC065 23/09 A3000 RMK AO2 T02340088
                 =
2014-09-17 15:55 METAR KSHD 171955Z AUTO 19004KT 10SM BKN050 OVC065 23/08 A3000 RMK AO2 T02250084
                 =
2014-09-17 15:35 METAR KSHD 171935Z AUTO 15006KT 10SM SCT050 BKN060 23/08 A3000 RMK AO2 T02250083
                 =
2014-09-17 15:15 METAR KSHD 171915Z AUTO 18004KT 10SM SCT050 BKN060 23/08 A3000 RMK AO2 T02300082
                 =
2014-09-17 14:55 METAR KSHD 171855Z AUTO 00000KT 10SM OVC050 23/08 A3001 RMK AO2 T02260082 =
2014-09-17 14:35 METAR KSHD 171835Z AUTO 17006KT 10SM SCT055 23/09 A3002 RMK AO2 T02270085 =
2014-09-17 14:15 METAR KSHD 171815Z AUTO 16005KT 10SM BKN055 22/09 A3002 RMK AO2 T02190087 =
2014-09-17 12:15 METAR KSHD 171615Z AUTO 00000KT 10SM SCT065 20/08 A3007 RMK AO2 T02000081 =
2014-09-17 11:55 METAR KSHD 171555Z AUTO 15004KT 10SM BKN065 20/09 A3008 RMK AO2 T01980087 =
2014-09-17 11:15 METAR KSHD 171515Z AUTO 09003KT 10SM SCT046 SCT050 BKN065 19/09 A3009 RMK AO2
                 T01900089 =
2014-09-17 10:55 METAR KSHD 171455Z AUTO 00000KT 10SM SCT048 BKN065 18/09 A3010 RMK AO2 T01780093
                 =
2014-09-17 10:35 METAR KSHD 171435Z AUTO 06003KT 10SM BKN050 OVC065 17/10 A3010 RMK AO2 T01730099
                 =
2014-09-17 10:15 METAR KSHD 171415Z AUTO 00000KT 10SM SCT050 OVC065 17/10 A3010 RMK AO2 T01700100
                 =
2014-09-17 09:55 METAR KSHD 171355Z AUTO 00000KT 10SM SCT050 OVC065 16/10 A3011 RMK AO2 T01560099
                 =
2014-09-17 09:35 METAR KSHD 171335Z AUTO 00000KT 10SM SCT050 OVC065 14/10 A3011 RMK AO2 T01420099
                 =
2014-09-17 09:15 METAR KSHD 171315Z AUTO 00000KT 10SM OVC050 14/10 A3011 RMK AO2 T01360101 =
2014-09-17 08:15 METAR KSHD 171215Z AUTO 00000KT 7SM SCT050 OVC065 11/10 A3010 RMK AO2 T01100095
                 =
2014-09-17 07:55 METAR KSHD 171155Z AUTO 00000KT 7SM OVC050 11/09 A3010 RMK AO2 T01060091 10147
                 20087 =
2014-09-17 07:35 METAR KSHD 171135Z AUTO 00000KT 5SM BR OVC050 10/09 A3010 RMK AO2 T01010088 =
2014-09-17 07:15 METAR KSHD 171115Z AUTO 00000KT 5SM BR SCT050 09/08 A3010 RMK AO2 T00940081 =
2014-09-17 06:55 METAR KSHD 171055Z AUTO 09003KT 5SM BR BKN050 10/08 A3009 RMK AO2 T00950082 =
2014-09-17 06:35 METAR KSHD 171035Z AUTO 00000KT 5SM BR SCT055 09/08 A3009 RMK AO2 T00940081 =
2014-09-17 05:55 METAR KSHD 170955Z AUTO 00000KT 7SM CLR 09/07 A3008 RMK AO2 T00880072 =
2014-09-17 05:35 METAR KSHD 170935Z AUTO 00000KT 7SM CLR 10/08 A3008 RMK AO2 T00990084 =
2014-09-17 05:15 METAR KSHD 170915Z AUTO 00000KT 7SM CLR 10/09 A3008 RMK AO2 T01010087 =
2014-09-17 04:55 METAR KSHD 170855Z AUTO 00000KT 10SM SCT060 11/09 A3008 RMK AO2 T01050089 =
2014-09-17 04:35 METAR KSHD 170835Z AUTO 19003KT 10SM CLR 10/08 A3008 RMK AO2 T01010083 =
2014-09-17 04:15 METAR KSHD 170815Z AUTO 00000KT 10SM CLR 11/08 A3008 RMK AO2 T01060083 =
2014-09-17 03:55 METAR KSHD 170755Z AUTO 00000KT 10SM CLR 11/09 A3009 RMK AO2 T01120087 =
2014-09-17 03:35 METAR KSHD 170735Z AUTO 00000KT 10SM SCT050 13/09 A3009 RMK AO2 T01250094 =
2014-09-17 03:15 METAR KSHD 170715Z AUTO 00000KT 10SM SCT050 13/10 A3008 RMK AO2 T01250096 =
2014-09-17 02:55 METAR KSHD 170655Z AUTO 00000KT 10SM SCT050 SCT055 SCT075 14/10 A3008 RMK AO2
                 T01350100 =
2014-09-17 02:35 METAR KSHD 170635Z AUTO 34003KT 10SM SCT050 SCT075 14/10 A3009 RMK AO2 T01360100
                 =
2014-09-17 02:15 METAR KSHD 170615Z AUTO 35003KT 10SM BKN075 15/10 A3009 RMK AO2 T01450098 =
2014-09-17 01:55 METAR KSHD 170555Z AUTO 35004KT 10SM SCT055 OVC075 15/10 A3010 RMK AO2 T01470097
                 10202 20146 402510127 =

Support USWX by starting your Amazon purchase here.